Time;durP1;ratioP1;P1;durP2;ratioP2;P2;SDS_P1;SDS_P2;PMS_P1;PMS_P2;Temp;Humidity;BMP_temperature;BMP_pressure;BME280_temperature;BME280_humidity;BME280_pressure;Samples;Min_cycle;Max_cycle;Signal;HPM_P1;HPM_P2
2021/09/15 00:02:19;;;;;;;33.03;24.88;;;;;;;17.12;89.58;101170.25;5064064;28;20376;-61
2021/09/15 00:04:44;;;;;;;32.97;25.88;;;;;;;17.13;89.78;101171.13;5064323;28;20044;-60
2021/09/15 00:07:09;;;;;;;37.00;27.10;;;;;;;17.16;89.79;101176.34;5063009;28;20043;-60
2021/09/15 00:09:35;;;;;;;33.63;26.42;;;;;;;17.15;89.89;101166.66;5061055;28;20132;-60
2021/09/15 00:12:00;;;;;;;32.25;25.30;;;;;;;17.17;89.98;101172.81;5063128;28;20400;-60
2021/09/15 00:14:25;;;;;;;37.10;28.65;;;;;;;17.19;90.10;101162.16;5063626;28;20041;-61
2021/09/15 00:16:51;;;;;;;42.58;29.55;;;;;;;17.22;90.41;101164.72;5063386;28;20048;-60
2021/09/15 00:19:16;;;;;;;45.00;30.83;;;;;;;17.24;90.51;101161.13;5062655;28;20033;-60
2021/09/15 00:21:41;;;;;;;48.42;34.03;;;;;;;17.28;90.70;101152.16;5063071;28;20037;-60
2021/09/15 00:24:07;;;;;;;47.15;33.90;;;;;;;17.33;90.71;101154.69;5063961;28;20037;-60
2021/09/15 00:26:32;;;;;;;53.30;36.08;;;;;;;17.39;90.57;101157.22;5063901;28;20084;-61
2021/09/15 00:28:58;;;;;;;50.13;35.88;;;;;;;17.41;90.24;101143.88;5062501;28;20082;-61
2021/09/15 00:31:23;;;;;;;48.50;33.60;;;;;;;17.43;90.15;101155.34;5062733;28;20037;-61
2021/09/15 00:33:49;;;;;;;57.13;38.13;;;;;;;17.42;89.73;101146.50;5063303;28;20032;-60
2021/09/15 00:36:14;;;;;;;55.88;38.67;;;;;;;17.41;89.99;101157.16;5063459;28;20035;-60
2021/09/15 00:38:40;;;;;;;54.53;38.72;;;;;;;17.36;90.00;101157.28;5061875;28;20063;-60
2021/09/15 00:41:05;;;;;;;61.42;41.50;;;;;;;17.33;90.05;101152.03;5061918;28;20044;-60
2021/09/15 00:43:31;;;;;;;59.95;39.78;;;;;;;17.31;90.13;101151.22;5063127;28;20754;-60
2021/09/15 00:45:57;;;;;;;56.47;37.00;;;;;;;17.26;89.50;101150.47;5062945;28;20032;-60
2021/09/15 00:48:26;;;;;;;50.25;36.65;;;;;;;17.22;89.76;101149.69;5063625;28;20037;-61
2021/09/15 00:50:52;;;;;;;;;;;;;;;17.18;89.67;101147.97;5062855;28;20110;-61
2021/09/15 00:53:17;;;;;;;56.87;37.87;;;;;;;17.17;89.83;101156.88;5062978;28;19917;-60
2021/09/15 00:55:43;;;;;;;54.85;36.47;;;;;;;17.13;89.60;101150.75;5062005;28;20294;-61
2021/09/15 00:58:08;;;;;;;52.38;36.45;;;;;;;17.10;89.68;101150.81;5063546;28;20047;-60
2021/09/15 01:00:34;;;;;;;54.92;37.20;;;;;;;17.08;89.48;101154.44;5062791;28;20043;-60
2021/09/15 01:02:59;;;;;;;52.15;36.55;;;;;;;17.05;89.81;101146.53;5062183;28;20163;-60
2021/09/15 01:05:24;;;;;;;54.05;37.22;;;;;;;17.03;89.76;101151.00;5062700;28;20036;-60
2021/09/15 01:07:50;;;;;;;56.30;36.78;;;;;;;16.99;89.80;101144.88;5061916;28;20044;-60
2021/09/15 01:10:16;;;;;;;56.08;37.88;;;;;;;16.98;89.72;101147.59;5059581;28;20037;-60
2021/09/15 01:12:42;;;;;;;53.53;37.70;;;;;;;16.95;89.64;101149.41;5061837;28;20075;-61
2021/09/15 01:15:08;;;;;;;54.85;38.05;;;;;;;16.91;89.88;101146.88;5062042;28;20098;-59
2021/09/15 01:17:33;;;;;;;52.45;35.63;;;;;;;16.87;89.84;101148.72;5062332;28;20070;-60
2021/09/15 01:20:01;;;;;;;56.88;38.63;;;;;;;16.86;89.98;101151.41;5061680;28;20510;-59
2021/09/15 01:22:28;;;;;;;61.85;40.70;;;;;;;16.86;90.18;101149.63;5061709;28;20033;-59
2021/09/15 01:24:54;;;;;;;54.88;38.60;;;;;;;16.87;90.20;101155.81;5062559;28;20052;-60
2021/09/15 01:27:19;;;;;;;56.83;38.95;;;;;;;16.86;90.28;101143.44;5062425;28;20040;-60
2021/09/15 01:29:45;;;;;;;56.42;36.58;;;;;;;16.85;89.99;101149.66;5062316;28;20036;-60
2021/09/15 01:32:14;;;;;;;59.28;38.30;;;;;;;16.83;89.74;101154.13;5061008;28;20048;-60
2021/09/15 01:34:43;;;;;;;56.65;38.05;;;;;;;16.80;89.66;101151.50;5062857;28;20467;-59
2021/09/15 01:37:11;;;;;;;53.47;37.25;;;;;;;16.75;89.79;101139.22;5061816;28;20029;-60
2021/09/15 01:39:37;;;;;;;54.78;37.17;;;;;;;16.74;89.70;101139.25;5062293;28;20035;-60
2021/09/15 01:42:04;;;;;;;57.85;38.42;;;;;;;16.69;89.77;101134.06;5061917;28;20116;-60
2021/09/15 01:44:41;;;;;;;51.08;36.78;;;;;;;16.65;89.39;101131.50;5062366;28;20131;-60
2021/09/15 01:47:09;;;;;;;50.83;35.05;;;;;;;16.62;89.72;101127.13;5062203;28;20021;-60
2021/09/15 01:49:36;;;;;;;58.95;37.78;;;;;;;16.59;89.46;101127.19;5062359;28;20021;-60
2021/09/15 01:52:03;;;;;;;52.28;36.50;;;;;;;16.55;89.77;101126.38;5061800;28;20036;-59
2021/09/15 01:54:29;;;;;;;53.42;38.53;;;;;;;16.55;89.75;101134.34;5061514;28;20460;-59
2021/09/15 01:56:55;;;;;;;62.58;39.60;;;;;;;16.54;89.88;101132.63;5062225;28;20040;-60
2021/09/15 01:59:20;;;;;;;61.88;40.40;;;;;;;16.51;89.92;101132.66;5061386;28;20036;-60
2021/09/15 02:01:46;;;;;;;55.58;38.13;;;;;;;16.48;89.75;101135.41;5062422;28;20032;-60
2021/09/15 02:04:12;;;;;;;60.92;39.53;;;;;;;16.44;89.61;101131.06;5062938;28;20114;-60
2021/09/15 02:06:37;;;;;;;59.42;39.00;;;;;;;16.41;89.67;101131.13;5061541;28;20087;-60
2021/09/15 02:09:04;;;;;;;57.67;38.60;;;;;;;16.40;89.77;101125.84;5060827;28;20032;-59
2021/09/15 02:11:30;;;;;;;57.25;37.90;;;;;;;16.41;89.67;101130.25;5061175;28;20605;-60
2021/09/15 02:13:55;;;;;;;63.65;40.22;;;;;;;16.40;90.29;101132.03;5062497;28;20029;-59
2021/09/15 02:16:22;;;;;;;60.60;39.28;;;;;;;16.40;90.21;101121.41;5062100;28;20106;-60
2021/09/15 02:18:47;;;;;;;55.90;37.08;;;;;;;16.41;90.06;101127.59;5062503;28;20190;-60
2021/09/15 02:21:13;;;;;;;54.20;37.20;;;;;;;16.40;90.00;101134.69;5061132;28;20465;-60
2021/09/15 02:23:38;;;;;;;57.83;37.88;;;;;;;16.37;89.92;101132.97;5061857;28;20025;-59
2021/09/15 02:26:04;;;;;;;53.42;35.90;;;;;;;16.37;89.81;101140.06;5061651;28;20037;-60
2021/09/15 02:28:29;;;;;;;55.10;37.05;;;;;;;16.35;89.70;101125.94;5059415;28;20507;-60
2021/09/15 02:30:54;;;;;;;52.38;35.75;;;;;;;16.34;89.68;101134.81;5061671;28;20033;-60
2021/09/15 02:33:20;;;;;;;52.63;35.17;;;;;;;16.31;89.60;101133.13;5061797;28;20040;-59
2021/09/15 02:35:45;;;;;;;54.30;36.67;;;;;;;16.29;89.54;101126.94;5062170;28;20044;-59
2021/09/15 02:38:11;;;;;;;50.55;35.60;;;;;;;16.29;89.51;101128.72;5065900;28;20033;-59
2021/09/15 02:40:36;;;;;;;52.15;36.50;;;;;;;16.27;89.55;101136.72;5059450;28;20045;-60
2021/09/15 02:43:01;;;;;;;52.67;36.03;;;;;;;16.25;89.48;101130.56;5061802;28;20036;-60
2021/09/15 02:45:27;;;;;;;53.47;35.67;;;;;;;16.23;89.50;101123.56;5061946;28;20036;-60
2021/09/15 02:47:52;;;;;;;54.80;35.72;;;;;;;16.23;89.40;101126.22;5062219;28;20084;-59
2021/09/15 02:50:17;;;;;;;51.67;34.50;;;;;;;16.20;89.44;101129.81;5061480;28;20029;-60
2021/09/15 02:52:43;;;;;;;50.58;35.15;;;;;;;16.17;89.27;101122.78;5063020;28;20471;-59
2021/09/15 02:55:08;;;;;;;55.08;36.53;;;;;;;16.16;89.68;101120.16;5066867;28;20033;-60
2021/09/15 02:57:34;;;;;;;50.83;35.95;;;;;;;16.15;89.55;101115.75;5065342;28;20028;-59
2021/09/15 02:59:59;;;;;;;50.92;35.72;;;;;;;16.14;89.55;101122.84;5064849;28;20083;-59
2021/09/15 03:02:25;;;;;;;60.30;38.60;;;;;;;16.15;89.87;101116.63;5064558;28;20103;-60
2021/09/15 03:04:50;;;;;;;57.05;37.83;;;;;;;16.17;90.07;101113.94;5065415;28;20071;-60
2021/09/15 03:07:15;;;;;;;57.75;36.33;;;;;;;16.20;90.12;101110.34;5065137;28;20033;-60
2021/09/15 03:09:41;;;;;;;60.17;38.17;;;;;;;16.23;90.06;101115.59;5062983;28;20056;-60
2021/09/15 03:12:06;;;;;;;61.53;40.30;;;;;;;16.27;90.44;101106.69;5064348;28;20082;-60
2021/09/15 03:14:32;;;;;;;53.83;37.97;;;;;;;16.30;90.36;101101.31;5070687;28;20044;-59
2021/09/15 03:16:57;;;;;;;59.03;37.05;;;;;;;16.30;90.46;101099.53;5064251;28;20045;-60
2021/09/15 03:19:22;;;;;;;58.05;37.38;;;;;;;16.30;90.02;101102.19;5064391;28;20068;-60
2021/09/15 03:21:48;;;;;;;54.95;37.47;;;;;;;16.28;89.88;101096.03;5063862;28;20036;-59
2021/09/15 03:24:13;;;;;;;56.90;37.78;;;;;;;16.28;90.12;101097.84;5064996;28;20055;-60
2021/09/15 03:26:38;;;;;;;61.55;38.47;;;;;;;16.26;90.10;101092.56;5065199;28;20040;-59
2021/09/15 03:29:04;;;;;;;60.40;36.85;;;;;;;16.26;90.02;101087.25;5064235;28;20037;-60
2021/09/15 03:31:30;;;;;;;58.22;38.45;;;;;;;16.23;90.04;101087.31;5064014;28;20033;-61
2021/09/15 03:33:55;;;;;;;59.42;39.28;;;;;;;16.21;90.08;101078.50;5064632;28;20029;-60
2021/09/15 03:36:20;;;;;;;64.28;40.67;;;;;;;16.17;90.12;101083.00;5062320;28;20032;-60
2021/09/15 03:38:46;;;;;;;67.88;41.47;;;;;;;16.16;90.16;101086.56;5062836;28;20090;-60
2021/09/15 03:41:11;;;;;;;60.00;39.33;;;;;;;16.12;90.07;101084.00;5064217;28;20037;-59
2021/09/15 03:43:37;;;;;;;58.83;38.30;;;;;;;16.10;89.83;101086.69;5063915;28;20129;-61
2021/09/15 03:46:02;;;;;;;57.70;38.38;;;;;;;16.07;89.83;101086.78;5064109;28;20033;-60
2021/09/15 03:48:28;;;;;;;62.42;38.05;;;;;;;16.05;89.90;101091.22;5064358;28;20025;-60
2021/09/15 03:50:53;;;;;;;58.25;36.35;;;;;;;16.05;89.84;101098.28;5063730;28;20044;-60
2021/09/15 03:53:19;;;;;;;61.15;38.42;;;;;;;16.03;89.73;101100.09;5063598;28;20017;-59
2021/09/15 03:55:44;;;;;;;57.22;37.65;;;;;;;16.00;89.67;101105.47;5064139;28;20078;-60
2021/09/15 03:58:10;;;;;;;64.75;40.28;;;;;;;15.95;89.96;101109.09;5064717;28;20025;-60
2021/09/15 04:00:35;;;;;;;67.15;42.28;;;;;;;15.93;90.47;101104.72;5063329;28;20057;-59
2021/09/15 04:03:01;;;;;;;70.90;42.53;;;;;;;15.91;90.69;101104.72;5062570;28;20044;-60
2021/09/15 04:05:26;;;;;;;63.38;39.33;;;;;;;15.88;90.66;101098.63;5063723;28;20036;-60
2021/09/15 04:07:52;;;;;;;60.58;38.85;;;;;;;15.86;90.13;101109.28;5063147;28;20029;-60
2021/09/15 04:10:17;;;;;;;60.75;38.67;;;;;;;15.87;90.13;101126.03;5063920;28;20040;-60
2021/09/15 04:12:42;;;;;;;62.80;39.95;;;;;;;15.88;90.13;101115.41;5062718;28;20115;-59
2021/09/15 04:15:08;;;;;;;60.40;37.85;;;;;;;15.90;90.39;101113.59;5063513;28;20029;-59
2021/09/15 04:17:33;;;;;;;63.03;39.00;;;;;;;15.92;90.49;101110.94;5062805;28;20025;-59
2021/09/15 04:19:59;;;;;;;63.67;41.40;;;;;;;15.96;90.71;101112.63;5064248;28;20500;-59
2021/09/15 04:22:24;;;;;;;60.88;38.80;;;;;;;15.98;90.60;101109.03;5064292;28;20139;-59
2021/09/15 04:33:02;;;;;;;64.25;41.15;;;;;;;16.12;90.72;101099.91;5058980;28;20098;-60
2021/09/15 04:35:28;;;;;;;67.00;39.65;;;;;;;16.13;90.81;101106.97;5063510;28;20037;-59
2021/09/15 04:37:54;;;;;;;68.03;41.15;;;;;;;16.15;90.76;101108.69;5063126;28;20059;-59
2021/09/15 04:40:20;;;;;;;68.85;40.20;;;;;;;16.16;90.82;101105.13;5060716;28;20041;-60
2021/09/15 04:42:45;;;;;;;70.90;41.33;;;;;;;16.19;90.87;101104.19;5063557;28;20134;-60
2021/09/15 04:45:11;;;;;;;64.20;40.17;;;;;;;16.20;90.76;101095.34;5065010;28;20035;-60
2021/09/15 04:47:36;;;;;;;68.07;39.70;;;;;;;16.22;90.93;101097.94;5062840;28;20029;-60
2021/09/15 04:50:03;;;;;;;64.18;39.38;;;;;;;16.24;90.96;101096.13;5063831;28;20143;-60
2021/09/15 04:52:29;;;;;;;76.68;43.90;;;;;;;16.26;91.09;101102.28;5062617;28;20024;-59
2021/09/15 04:54:54;;;;;;;83.35;43.53;;;;;;;16.30;91.68;101103.97;5062827;28;20036;-59
2021/09/15 04:57:19;;;;;;;78.05;44.53;;;;;;;16.33;91.52;101098.59;5063008;28;20056;-60
2021/09/15 04:59:45;;;;;;;82.05;44.42;;;;;;;16.35;91.35;101095.00;5062513;28;20068;-60
2021/09/15 05:02:10;;;;;;;83.68;44.25;;;;;;;16.41;91.50;101094.00;5066099;28;20088;-60
2021/09/15 05:04:36;;;;;;;94.38;46.90;;;;;;;16.44;91.46;101091.28;5062256;28;20040;-59
2021/09/15 05:07:01;;;;;;;88.93;46.15;;;;;;;16.46;91.23;101096.53;5061432;28;20033;-60
2021/09/15 05:09:26;;;;;;;84.53;44.20;;;;;;;16.45;90.79;101093.03;5059298;28;20036;-60
2021/09/15 05:11:52;;;;;;;92.97;46.20;;;;;;;16.45;91.00;101097.47;5062659;28;20041;-60
2021/09/15 05:14:17;;;;;;;78.65;42.15;;;;;;;16.46;90.84;101100.06;5061341;28;20032;-60
2021/09/15 05:16:43;;;;;;;77.38;42.20;;;;;;;16.44;90.64;101107.19;5057062;28;20052;-60
2021/09/15 05:19:08;;;;;;;83.68;43.80;;;;;;;16.43;90.39;101104.59;5061039;28;20071;-60
2021/09/15 05:21:33;;;;;;;84.03;45.17;;;;;;;16.42;90.82;101103.69;5057329;28;20093;-60
2021/09/15 05:23:59;;;;;;;83.35;44.40;;;;;;;16.42;90.65;101108.13;5060872;28;20029;-60
2021/09/15 05:26:25;;;;;;;86.05;45.47;;;;;;;16.40;90.73;101110.81;5061284;28;20032;-60
2021/09/15 05:28:50;;;;;;;89.30;44.60;;;;;;;16.42;90.98;101108.13;5063446;28;20037;-59
2021/09/15 05:31:15;;;;;;;84.80;44.85;;;;;;;16.44;91.09;101111.63;5065192;28;20128;-60
2021/09/15 05:33:41;;;;;;;90.85;45.03;;;;;;;16.46;91.17;101113.31;5062316;28;20037;-60
2021/09/15 05:36:06;;;;;;;81.40;43.42;;;;;;;16.47;90.97;101114.22;5061567;28;20079;-59
2021/09/15 05:38:32;;;;;;;81.28;42.42;;;;;;;16.48;90.77;101113.28;5061388;28;20033;-60
2021/09/15 05:40:57;;;;;;;83.80;44.28;;;;;;;16.45;90.57;101108.06;5060612;28;20120;-60
2021/09/15 05:43:22;;;;;;;74.47;40.80;;;;;;;16.43;90.40;101109.91;5061412;28;20043;-60
2021/09/15 05:45:48;;;;;;;81.85;44.47;;;;;;;16.41;90.51;101116.97;5061339;28;20021;-60
2021/09/15 05:48:13;;;;;;;80.20;42.28;;;;;;;16.40;90.31;101117.91;5058650;28;20175;-58
2021/09/15 05:50:39;;;;;;;83.30;41.92;;;;;;;16.41;90.59;101124.94;5062105;28;20052;-60
2021/09/15 05:53:04;;;;;;;94.47;45.38;;;;;;;16.45;90.72;101124.00;5061768;28;20037;-61
2021/09/15 05:55:29;;;;;;;96.30;45.63;;;;;;;16.47;90.61;101132.78;5061459;28;20037;-61
2021/09/15 05:57:55;;;;;;;92.07;45.33;;;;;;;16.49;90.44;101134.47;5059874;28;20024;-62
2021/09/15 06:00:20;;;;;;;86.20;44.55;;;;;;;16.52;90.61;101139.75;5058819;28;20033;-60
2021/09/15 06:02:45;;;;;;;79.85;43.40;;;;;;;16.54;90.49;101137.03;5058306;28;20033;-60
2021/09/15 06:05:11;;;;;;;85.07;42.40;;;;;;;16.61;90.45;101132.47;5060078;28;20037;-58
2021/09/15 06:07:36;;;;;;;82.72;43.10;;;;;;;16.65;90.35;101139.44;5060113;28;20131;-60
2021/09/15 06:10:02;;;;;;;76.85;42.67;;;;;;;16.71;90.32;101141.97;5059760;28;20093;-59
2021/09/15 06:12:27;;;;;;;79.88;42.17;;;;;;;16.78;90.33;101132.97;5062490;28;20021;-60
2021/09/15 06:14:52;;;;;;;77.85;42.50;;;;;;;16.85;90.22;101144.34;5061735;28;20090;-59
2021/09/15 06:17:18;;;;;;;71.28;40.88;;;;;;;16.94;90.36;101141.50;5060255;28;20069;-59
2021/09/15 06:19:43;;;;;;;67.07;38.47;;;;;;;17.03;90.11;101143.03;5062431;28;20033;-59
2021/09/15 06:22:08;;;;;;;66.13;39.60;;;;;;;17.12;89.50;101141.03;5062063;28;20493;-59
2021/09/15 06:24:34;;;;;;;65.13;38.58;;;;;;;17.21;88.97;101139.94;5061609;28;20056;-59
2021/09/15 06:26:59;;;;;;;55.83;35.97;;;;;;;17.33;88.82;101144.97;5064574;28;20020;-59
2021/09/15 06:29:24;;;;;;;51.58;33.63;;;;;;;17.47;88.34;101139.31;5064178;28;20025;-59
2021/09/15 06:31:50;;;;;;;49.28;33.95;;;;;;;17.58;87.47;101140.78;5065529;28;20106;-60
2021/09/15 06:34:15;;;;;;;50.63;33.13;;;;;;;17.64;87.48;101148.63;5066140;28;20072;-58
2021/09/15 06:36:41;;;;;;;37.90;27.40;;;;;;;17.72;87.07;101142.19;5064786;28;20051;-58
2021/09/15 06:39:07;;;;;;;32.00;24.40;;;;;;;17.84;84.63;101145.41;5066899;28;20139;-59
2021/09/15 06:41:33;;;;;;;29.15;21.38;;;;;;;17.93;84.05;101146.06;5065217;28;20127;-59
2021/09/15 06:43:58;;;;;;;29.52;21.60;;;;;;;17.98;83.54;101158.41;5065737;28;20551;-59
2021/09/15 06:46:23;;;;;;;32.65;23.10;;;;;;;18.00;83.34;101160.09;5064984;28;20060;-60
2021/09/15 06:48:50;;;;;;;26.25;21.27;;;;;;;18.08;83.80;101150.09;5065238;28;20037;-60
2021/09/15 06:51:16;;;;;;;27.02;19.05;;;;;;;18.16;83.21;101159.66;5065769;28;20040;-59
2021/09/15 06:53:42;;;;;;;27.00;19.60;;;;;;;18.21;83.06;101155.09;5064149;28;20033;-59
2021/09/15 06:56:07;;;;;;;23.58;18.40;;;;;;;18.22;82.60;101167.44;5065062;28;20083;-59
2021/09/15 06:58:32;;;;;;;20.13;16.52;;;;;;;18.17;81.92;101161.41;5066377;28;20074;-59
2021/09/15 07:00:58;;;;;;;12.80;11.20;;;;;;;18.12;81.48;101167.72;5063396;28;20048;-59
2021/09/15 07:03:24;;;;;;;14.75;11.52;;;;;;;18.11;81.00;101167.78;5065275;28;20028;-59
2021/09/15 07:05:49;;;;;;;13.63;11.23;;;;;;;18.06;80.27;101164.38;5064889;28;20025;-60
2021/09/15 07:08:14;;;;;;;12.60;10.75;;;;;;;18.00;79.53;101161.88;5065636;28;20060;-60
2021/09/15 07:10:41;;;;;;;11.63;10.30;;;;;;;17.98;80.30;101164.56;5063440;28;20095;-60
2021/09/15 07:13:07;;;;;;;12.60;10.18;;;;;;;17.92;79.69;101170.06;5063691;28;20025;-59
2021/09/15 07:15:33;;;;;;;12.18;9.50;;;;;;;17.92;80.23;101175.38;5057867;28;20049;-60
2021/09/15 07:17:59;;;;;;;11.35;9.65;;;;;;;17.89;81.15;101178.97;5063919;28;20124;-58
2021/09/15 07:20:25;;;;;;;10.15;8.75;;;;;;;17.87;81.20;101177.28;5065273;28;20120;-61
2021/09/15 07:22:51;;;;;;;10.40;9.15;;;;;;;17.89;80.87;101178.97;5065575;28;20041;-61
2021/09/15 07:25:17;;;;;;;11.05;8.75;;;;;;;17.91;79.27;101181.59;5063098;28;20033;-59
2021/09/15 07:27:43;;;;;;;9.60;8.57;;;;;;;17.85;80.04;101173.78;5063120;28;20063;-60
2021/09/15 07:30:10;;;;;;;9.15;8.13;;;;;;;17.81;80.29;101172.97;5061020;28;20029;-61
2021/09/15 07:32:36;;;;;;;10.82;9.10;;;;;;;17.76;81.05;101169.56;5063247;28;20025;-61
2021/09/15 07:35:02;;;;;;;9.20;7.90;;;;;;;17.77;80.53;101170.41;5068381;28;20123;-60
2021/09/15 07:37:27;;;;;;;9.38;7.60;;;;;;;17.79;79.78;101166.81;5060723;28;20036;-60
2021/09/15 07:39:53;;;;;;;11.13;8.25;;;;;;;17.74;81.25;101171.38;5062521;28;20082;-60
2021/09/15 07:42:19;;;;;;;11.65;7.43;;;;;;;17.71;80.14;101167.03;5064328;28;20063;-60
2021/09/15 07:44:44;;;;;;;8.73;6.90;;;;;;;17.65;79.05;101164.50;5064583;28;20090;-60
2021/09/15 07:47:15;;;;;;;9.38;5.80;;;;;;;17.65;78.52;101160.97;5063928;28;20109;-60
2021/09/15 07:49:44;;;;;;;9.80;5.85;;;;;;;17.67;78.35;101164.47;5059971;28;20512;-60
2021/09/15 07:52:10;;;;;;;7.03;5.88;;;;;;;17.68;78.77;101160.91;5065975;28;20037;-60
2021/09/15 07:54:35;;;;;;;9.18;5.40;;;;;;;17.76;77.55;101160.72;5060154;28;20388;-60
2021/09/15 07:57:01;;;;;;;5.90;4.90;;;;;;;17.79;77.86;101156.19;5061596;28;20025;-59
2021/09/15 07:59:26;;;;;;;8.63;5.38;;;;;;;17.80;78.07;101149.94;5061842;28;20058;-60
2021/09/15 08:01:51;;;;;;;11.52;5.50;;;;;;;17.85;77.56;101156.06;5062506;28;20086;-59
2021/09/15 08:04:17;;;;;;;8.20;5.22;;;;;;;17.85;77.68;101152.53;5063896;28;20041;-59
2021/09/15 08:06:42;;;;;;;8.45;5.00;;;;;;;17.84;78.55;101145.41;5063122;28;20099;-60
2021/09/15 08:09:07;;;;;;;9.68;4.50;;;;;;;17.82;78.24;101140.13;5063085;28;20068;-59
2021/09/15 08:11:33;;;;;;;10.48;4.90;;;;;;;17.79;78.63;101148.22;5061947;28;20033;-61
2021/09/15 08:13:59;;;;;;;9.48;4.78;;;;;;;17.78;77.27;101143.81;5064151;28;20063;-60
2021/09/15 08:16:25;;;;;;;13.07;4.80;;;;;;;17.76;77.41;101140.31;5060613;28;20057;-59
2021/09/15 08:18:50;;;;;;;9.80;4.97;;;;;;;17.71;78.03;101140.44;5061793;28;20025;-59
2021/09/15 08:21:16;;;;;;;8.98;4.30;;;;;;;17.72;77.95;101138.66;5058254;28;20086;-59
2021/09/15 08:23:41;;;;;;;10.15;3.85;;;;;;;17.72;77.77;101139.53;5060812;28;20781;-60
2021/09/15 08:26:07;;;;;;;7.70;3.25;;;;;;;17.82;76.71;101150.78;5060654;28;20048;-60
2021/09/15 08:28:36;;;;;;;6.43;2.22;;;;;;;17.86;76.69;101138.31;5057142;28;20527;-59
2021/09/15 08:31:06;;;;;;;6.00;2.50;;;;;;;17.88;75.91;101142.69;5059966;28;20043;-60
2021/09/15 08:33:31;;;;;;;5.10;2.25;;;;;;;17.88;77.50;101142.69;5061840;28;20032;-59
2021/09/15 08:35:56;;;;;;;4.82;2.22;;;;;;;17.93;76.68;101148.72;5058722;28;20036;-60
2021/09/15 08:38:22;;;;;;;6.15;1.77;;;;;;;18.02;75.59;101126.34;5063473;28;20052;-60
2021/09/15 08:40:47;;;;;;;4.20;1.40;;;;;;;18.06;75.52;101137.78;5060605;28;20060;-59
2021/09/15 08:43:13;;;;;;;8.38;2.22;;;;;;;18.07;74.58;101142.16;5060396;28;20785;-59
2021/09/15 08:45:38;;;;;;;6.13;1.30;;;;;;;18.10;74.75;101134.09;5057477;28;20033;-60
2021/09/15 08:48:04;;;;;;;7.65;1.77;;;;;;;18.08;75.11;101142.13;5060957;28;20048;-60
2021/09/15 08:50:30;;;;;;;5.60;1.40;;;;;;;18.09;75.97;101153.63;5061865;28;20053;-59
2021/09/15 08:52:56;;;;;;;9.32;1.67;;;;;;;18.05;75.79;101152.88;5062791;28;20032;-59
2021/09/15 08:55:21;;;;;;;7.82;1.80;;;;;;;18.07;76.67;101156.34;5062922;28;20029;-59
2021/09/15 08:57:47;;;;;;;5.20;1.50;;;;;;;18.08;76.51;101144.78;5060053;28;20178;-59
2021/09/15 09:00:13;;;;;;;4.18;1.70;;;;;;;18.07;76.93;101158.09;5062118;28;20124;-59
2021/09/15 09:02:44;;;;;;;6.75;1.52;;;;;;;18.03;77.22;101154.66;5059668;28;20449;-59
2021/09/15 09:05:10;;;;;;;8.93;2.42;;;;;;;18.05;76.28;101160.84;5058592;28;20029;-62
2021/09/15 09:07:36;;;;;;;9.77;2.33;;;;;;;18.09;76.06;101162.50;5059879;28;20048;-62
2021/09/15 09:10:08;;;;;;;10.18;2.00;;;;;;;18.15;76.46;101160.56;5060261;28;20021;-61
2021/09/15 09:12:36;;;;;;;7.43;1.95;;;;;;;18.15;75.25;101171.19;5061523;28;20106;-62
2021/09/15 09:15:16;;;;;;;3.50;1.60;;;;;;;18.18;75.51;101165.78;5061076;28;20101;-63
2021/09/15 09:17:42;;;;;;;10.30;1.70;;;;;;;18.21;75.64;101165.72;5060970;28;20126;-63
2021/09/15 09:20:11;;;;;;;5.22;1.60;;;;;;;18.21;75.83;101161.25;5062275;28;20029;-63
2021/09/15 09:22:59;;;;;;;7.00;1.80;;;;;;;18.27;75.41;101163.75;5062664;28;20045;-62
2021/09/15 09:25:24;;;;;;;6.25;2.20;;;;;;;18.27;75.30;101174.38;5060735;28;20055;-63
2021/09/15 09:27:50;;;;;;;5.07;1.52;;;;;;;18.34;75.51;101166.25;5059616;28;20028;-63
2021/09/15 09:30:37;;;;;;;8.73;2.00;;;;;;;18.37;74.12;101172.31;5060335;28;20033;-62
2021/09/15 09:33:04;;;;;;;8.20;1.70;;;;;;;18.37;74.70;101175.00;5062049;28;20434;-62
2021/09/15 09:35:45;;;;;;;7.03;2.03;;;;;;;18.33;74.82;101177.78;5058281;28;20084;-62
2021/09/15 09:38:21;;;;;;;6.63;2.03;;;;;;;18.38;75.58;101175.88;5061000;28;20025;-63
2021/09/15 09:41:02;;;;;;;7.88;2.20;;;;;;;18.38;75.24;101173.22;5062775;28;20067;-61
2021/09/15 09:43:29;;;;;;;7.30;2.08;;;;;;;18.41;75.17;101179.34;5061261;28;20051;-61
2021/09/15 09:45:55;;;;;;;6.43;2.00;;;;;;;18.41;75.19;101179.34;5062634;28;20091;-62
2021/09/15 09:48:43;;;;;;;7.25;1.92;;;;;;;18.46;74.94;101189.81;5062489;28;20144;-63
2021/09/15 09:51:30;;;;;;;5.93;2.13;;;;;;;18.47;75.29;101180.94;5062268;28;20036;-61
2021/09/15 09:54:25;;;;;;;6.30;2.05;;;;;;;18.49;75.44;101190.63;5059176;28;20033;-62
2021/09/15 09:56:54;;;;;;;11.07;2.15;;;;;;;18.58;75.11;101192.16;5025331;28;20043;-61
2021/09/15 09:59:21;;;;;;;7.40;2.20;;;;;;;18.63;74.35;101189.34;5020078;28;20457;-62
2021/09/15 10:01:50;;;;;;;12.15;2.67;;;;;;;18.68;74.39;101192.75;5025972;28;20067;-62
2021/09/15 10:04:17;;;;;;;5.95;2.20;;;;;;;18.75;74.49;101196.97;5023962;28;20067;-63
2021/09/15 10:06:44;;;;;;;6.80;2.42;;;;;;;18.78;74.19;101198.66;5021190;28;20045;-63
2021/09/15 10:09:11;;;;;;;6.93;2.30;;;;;;;18.80;74.12;101192.38;5019713;28;20418;-61
2021/09/15 10:11:39;;;;;;;5.20;2.33;;;;;;;18.92;73.19;101199.13;5020643;28;20038;-63
2021/09/15 10:14:08;;;;;;;7.85;2.65;;;;;;;19.06;72.95;101193.38;5023400;28;20501;-63
2021/09/15 10:16:40;;;;;;;4.53;2.00;;;;;;;19.13;72.44;101188.72;5017434;28;20042;-62
2021/09/15 10:19:08;;;;;;;8.07;2.40;;;;;;;19.15;72.98;101185.09;5023616;28;20145;-62
2021/09/15 10:21:35;;;;;;;9.15;2.40;;;;;;;19.22;71.52;101183.09;5023994;28;20045;-63
2021/09/15 10:24:03;;;;;;;6.70;2.53;;;;;;;19.21;72.19;101184.91;5021373;28;20101;-65
2021/09/15 10:26:41;;;;;;;7.22;2.55;;;;;;;19.25;71.77;101175.88;5021360;28;20045;-63
2021/09/15 10:29:12;;;;;;;5.95;2.30;;;;;;;19.22;72.27;101188.44;5023005;28;20746;-63
2021/09/15 10:31:58;;;;;;;4.97;2.00;;;;;;;19.21;71.67;101187.56;5023199;28;20208;-62
2021/09/15 10:34:48;;;;;;;7.05;2.20;;;;;;;19.21;72.63;101181.38;5058753;28;20144;-63
2021/09/15 10:37:13;;;;;;;;;;;;;;;19.22;73.24;101185.75;5060955;28;20078;-64
2021/09/15 10:39:54;;;;;;;5.53;2.37;;;;;;;19.15;73.18;101184.22;5065431;28;19921;-63
2021/09/15 10:42:38;;;;;;;9.98;2.60;;;;;;;19.07;73.33;101187.13;5061403;28;20076;-62
2021/09/15 10:45:09;;;;;;;8.05;2.85;;;;;;;19.08;72.42;101192.41;5065255;28;20029;-63
2021/09/15 10:47:39;;;;;;;6.20;2.33;;;;;;;19.14;72.43;101193.13;5063680;28;20032;-63
2021/09/15 10:50:06;;;;;;;5.32;2.38;;;;;;;19.03;72.54;101199.66;5065018;28;20112;-64
2021/09/15 10:52:49;;;;;;;4.97;2.13;;;;;;;19.07;72.09;101206.66;5066918;28;20036;-62
2021/09/15 10:55:26;;;;;;;7.35;2.42;;;;;;;18.98;74.09;101206.03;5066470;28;20074;-63
2021/09/15 10:57:51;;;;;;;4.80;2.33;;;;;;;18.98;73.34;101214.94;5064678;28;20017;-64
2021/09/15 11:00:17;;;;;;;5.47;2.47;;;;;;;18.99;73.63;101208.66;5064680;28;20496;-63
2021/09/15 11:02:44;;;;;;;4.53;2.58;;;;;;;19.00;74.48;101204.25;5065716;28;20396;-65
2021/09/15 11:05:25;;;;;;;5.40;2.50;;;;;;;19.05;73.89;101210.28;5065706;28;20044;-63
2021/09/15 11:07:50;;;;;;;10.27;2.50;;;;;;;19.14;72.99;101211.78;5063409;28;20114;-65
2021/09/15 11:10:39;;;;;;;8.30;2.40;;;;;;;19.35;72.14;101213.75;5056196;28;20033;-63
2021/09/15 11:13:08;;;;;;;2.85;2.45;;;;;;;19.44;70.47;101210.78;5061568;28;20304;-63
2021/09/15 11:15:42;;;;;;;4.47;2.55;;;;;;;19.40;71.16;101208.28;5069002;28;20475;-63
2021/09/15 11:18:15;;;;;;;5.95;2.70;;;;;;;19.45;68.98;101209.88;5060929;28;20488;-62
2021/09/15 11:20:41;;;;;;;7.15;3.22;;;;;;;19.47;69.28;101208.03;5064540;28;20040;-63
2021/09/15 11:23:08;;;;;;;4.38;2.53;;;;;;;19.36;70.37;101206.66;5064374;28;20041;-63